Time;durP1;ratioP1;P1;durP2;ratioP2;P2;SDS_P1;SDS_P2;PMS_P1;PMS_P2;Temp;Humidity;BMP_temperature;BMP_pressure;BME280_temperature;BME280_humidity;BME280_pressure;Samples;Min_cycle;Max_cycle;Signal;HPM_P1;HPM_P2
2023/02/03 02:42:58;;;;;;;24.75;14.18;;;8.40;82.50;;;;;;6306377;22;20036;-76
2023/02/03 02:45:30;;;;;;;29.38;15.02;;;8.30;81.70;;;;;;6308460;22;20314;-77
2023/02/03 02:48:06;;;;;;;23.10;14.48;;;8.20;81.10;;;;;;6308475;22;20341;-77
2023/02/03 02:50:37;;;;;;;27.20;15.07;;;8.20;82.10;;;;;;6339063;22;20006;-76
2023/02/03 02:53:05;;;;;;;24.90;14.40;;;8.20;81.30;;;;;;6312207;22;19998;-77
2023/02/03 02:55:33;;;;;;;21.23;13.63;;;8.10;81.20;;;;;;6339601;22;20003;-77
2023/02/03 02:58:04;;;;;;;23.27;14.20;;;8.10;81.50;;;;;;6339323;22;19999;-75
2023/02/03 03:00:32;;;;;;;23.80;14.35;;;8.10;81.50;;;;;;6339412;22;20010;-77
2023/02/03 03:03:17;;;;;;;21.92;14.40;;;8.00;81.40;;;;;;6339193;22;20026;-77
2023/02/03 03:05:48;;;;;;;23.45;14.23;;;8.00;82.60;;;;;;6339020;22;20006;-77
2023/02/03 03:08:17;;;;;;;24.50;14.05;;;8.00;81.40;;;;;;6339541;22;20029;-76
2023/02/03 03:10:45;;;;;;;26.02;14.00;;;7.90;81.70;;;;;;6339576;22;20309;-76
2023/02/03 03:13:17;;;;;;;21.38;13.90;;;7.90;81.50;;;;;;6339374;22;20022;-77
2023/02/03 03:15:44;;;;;;;23.30;13.32;;;7.90;81.70;;;;;;6339379;22;20045;-76
2023/02/03 03:18:37;;;;;;;23.02;13.52;;;7.90;81.90;;;;;;6311400;22;20435;-77
2023/02/03 03:21:05;;;;;;;19.23;12.68;;;7.90;82.10;;;;;;6338618;22;20010;-76
2023/02/03 03:23:38;;;;;;;20.85;13.50;;;7.80;81.60;;;;;;6339510;22;19998;-77
2023/02/03 03:26:29;;;;;;;23.27;12.95;;;7.90;82.90;;;;;;6338550;22;20094;-76
2023/02/03 03:29:09;;;;;;;22.70;12.90;;;7.90;82.60;;;;;;6339118;22;19999;-77
2023/02/03 03:31:35;;;;;;;19.92;12.95;;;8.00;82.00;;;;;;6338994;22;20006;-76
2023/02/03 03:34:01;;;;;;;21.98;13.55;;;8.00;81.50;;;;;;6339136;22;20010;-75
2023/02/03 03:36:43;;;;;;;20.38;13.60;;;8.00;82.00;;;;;;6338748;22;19994;-76
2023/02/03 03:39:23;;;;;;;24.50;14.07;;;8.00;81.50;;;;;;6338800;22;19995;-77
2023/02/03 03:42:21;;;;;;;22.25;13.48;;;8.00;82.20;;;;;;6338768;22;20436;-78
2023/02/03 03:45:18;;;;;;;22.42;14.35;;;8.00;82.50;;;;;;6338655;22;20048;-77
2023/02/03 03:47:58;;;;;;;25.27;15.73;;;7.90;82.80;;;;;;6311649;22;20014;-77
2023/02/03 03:50:34;;;;;;;29.65;18.60;;;7.80;82.70;;;;;;6339360;22;20021;-75
2023/02/03 03:53:03;;;;;;;34.45;20.20;;;7.70;82.60;;;;;;6339181;22;20009;-76
2023/02/03 03:55:31;;;;;;;34.83;19.42;;;7.60;81.80;;;;;;6339404;22;20003;-76
2023/02/03 03:58:20;;;;;;;31.75;21.08;;;7.60;81.90;;;;;;6339163;22;20003;-76
2023/02/03 04:00:47;;;;;;;34.25;22.17;;;7.60;82.20;;;;;;6341487;22;20058;-76
2023/02/03 04:03:20;;;;;;;33.03;21.20;;;7.60;82.10;;;;;;6355937;22;19999;-77
2023/02/03 04:05:46;;;;;;;33.05;20.75;;;7.60;82.20;;;;;;6365687;22;19994;-74
2023/02/03 04:08:12;;;;;;;32.25;19.85;;;7.60;82.20;;;;;;6361061;22;20006;-75
2023/02/03 04:10:40;;;;;;;33.22;20.00;;;7.60;82.20;;;;;;6341284;22;20002;-76
2023/02/03 04:13:08;;;;;;;33.10;21.75;;;7.60;82.30;;;;;;6340895;22;20455;-75
2023/02/03 04:15:34;;;;;;;31.48;21.73;;;7.70;82.20;;;;;;6341048;22;20003;-77
2023/02/03 04:18:02;;;;;;;33.30;21.95;;;7.70;82.10;;;;;;6340969;22;20421;-77
2023/02/03 04:20:30;;;;;;;29.98;20.75;;;7.70;83.00;;;;;;6340016;22;20512;-76
2023/02/03 04:22:56;;;;;;;29.27;19.65;;;7.70;82.10;;;;;;6338917;22;20002;-77
2023/02/03 04:25:23;;;;;;;26.27;18.13;;;7.60;82.20;;;;;;6339115;22;20089;-75
2023/02/03 04:27:48;;;;;;;26.45;17.35;;;7.70;82.10;;;;;;6311150;22;20036;-77
2023/02/03 04:30:17;;;;;;;27.88;17.25;;;7.60;82.30;;;;;;6310663;22;20416;-77
2023/02/03 04:32:43;;;;;;;26.38;16.33;;;7.50;82.40;;;;;;6338527;22;20002;-76
2023/02/03 04:35:09;;;;;;;28.05;15.82;;;7.50;82.20;;;;;;6338345;22;20002;-77
2023/02/03 04:37:35;;;;;;;27.23;16.58;;;7.40;82.10;;;;;;6338438;22;20022;-77
2023/02/03 04:40:01;;;;;;;30.05;17.77;;;7.40;82.20;;;;;;6338439;22;20007;-74
2023/02/03 04:42:26;;;;;;;23.73;16.20;;;7.40;82.60;;;;;;6338195;22;20011;-77
2023/02/03 04:44:52;;;;;;;26.33;16.90;;;7.30;82.20;;;;;;6338123;22;20121;-76
2023/02/03 04:47:18;;;;;;;25.60;17.45;;;7.30;82.30;;;;;;6338879;22;20423;-77
2023/02/03 04:49:44;;;;;;;32.92;20.23;;;7.30;82.30;;;;;;6338404;22;20003;-76
2023/02/03 04:52:10;;;;;;;29.55;16.95;;;7.30;82.50;;;;;;6338235;22;20002;-77
2023/02/03 04:54:36;;;;;;;26.08;17.75;;;7.30;82.20;;;;;;6338446;22;19998;-76
2023/02/03 04:57:02;;;;;;;26.70;16.95;;;7.30;82.30;;;;;;6338473;22;20003;-77
2023/02/03 04:59:28;;;;;;;29.92;18.48;;;7.30;82.60;;;;;;6311233;22;19995;-76
2023/02/03 05:01:54;;;;;;;30.02;18.77;;;7.30;82.40;;;;;;6338508;22;20010;-77
2023/02/03 05:04:20;;;;;;;25.98;17.67;;;7.30;82.50;;;;;;6338474;22;20089;-76
2023/02/03 05:06:45;;;;;;;27.27;17.27;;;7.30;82.30;;;;;;6338034;22;20010;-77
2023/02/03 05:09:11;;;;;;;26.08;18.25;;;7.40;82.60;;;;;;6338543;22;19998;-76
2023/02/03 05:11:37;;;;;;;31.83;17.90;;;7.40;82.60;;;;;;6338284;22;20026;-75
2023/02/03 05:14:03;;;;;;;29.45;18.23;;;7.40;82.20;;;;;;6337917;22;20070;-76
2023/02/03 05:16:28;;;;;;;30.90;18.08;;;7.40;82.30;;;;;;6338021;22;19998;-76
2023/02/03 05:18:54;;;;;;;29.30;19.30;;;7.50;82.50;;;;;;6337887;22;20070;-76
2023/02/03 05:21:20;;;;;;;31.08;21.13;;;7.50;82.90;;;;;;6337901;22;19995;-79
2023/02/03 05:23:46;;;;;;;31.55;21.58;;;7.50;82.50;;;;;;6337828;22;19998;-75
2023/02/03 05:26:12;;;;;;;32.55;23.33;;;7.40;82.30;;;;;;6337526;22;20011;-76
2023/02/03 05:28:37;;;;;;;32.38;23.30;;;7.30;82.20;;;;;;6337846;22;20049;-77
2023/02/03 05:31:03;;;;;;;34.05;23.65;;;7.20;82.60;;;;;;6337708;22;19998;-78
2023/02/03 05:33:29;;;;;;;40.75;24.13;;;7.10;82.40;;;;;;6337685;22;20033;-77
2023/02/03 05:35:55;;;;;;;41.78;23.98;;;7.00;82.00;;;;;;6310051;22;20007;-76
2023/02/03 05:38:21;;;;;;;40.58;24.13;;;7.00;82.60;;;;;;6337617;22;20002;-75
2023/02/03 05:43:45;;;;;;;31.58;21.65;;;6.90;82.90;;;;;;6238934;22;20019;-77
2023/02/03 05:46:11;;;;;;;32.63;20.55;;;6.90;83.10;;;;;;6306261;22;20426;-77
2023/02/03 05:48:36;;;;;;;37.45;22.55;;;6.90;83.20;;;;;;6306747;22;20002;-76
2023/02/03 05:51:02;;;;;;;30.27;21.88;;;6.90;82.90;;;;;;6307783;22;20007;-76
2023/02/03 05:53:28;;;;;;;36.40;22.10;;;6.80;83.20;;;;;;6306991;22;20007;-77
2023/02/03 05:55:54;;;;;;;36.90;22.48;;;6.80;82.70;;;;;;6307599;22;20006;-76
2023/02/03 05:58:19;;;;;;;36.40;22.50;;;6.80;82.90;;;;;;6280859;22;20004;-78
2023/02/03 06:00:46;;;;;;;33.55;22.65;;;6.90;83.00;;;;;;6308014;22;20048;-77
2023/02/03 06:03:12;;;;;;;36.22;22.08;;;6.90;83.00;;;;;;6308007;22;20003;-76
2023/02/03 06:05:39;;;;;;;37.25;23.52;;;6.90;82.70;;;;;;6280638;22;20030;-77
2023/02/03 06:08:07;;;;;;;40.67;22.77;;;7.00;82.70;;;;;;6308248;22;20006;-76
2023/02/03 06:10:32;;;;;;;36.92;23.65;;;7.00;83.00;;;;;;6308023;22;20003;-77
2023/02/03 06:12:58;;;;;;;35.67;23.25;;;7.00;83.20;;;;;;6308012;22;19995;-78
2023/02/03 06:15:24;;;;;;;33.75;21.77;;;7.00;82.50;;;;;;6308666;22;20082;-76
2023/02/03 06:17:49;;;;;;;33.78;23.13;;;7.00;82.40;;;;;;6308733;22;20003;-77
2023/02/03 06:20:17;;;;;;;31.58;20.92;;;7.00;82.40;;;;;;6308349;22;20006;-76
2023/02/03 06:22:43;;;;;;;33.78;19.65;;;7.00;82.30;;;;;;6308176;22;20070;-76
2023/02/03 06:25:09;;;;;;;31.38;20.50;;;6.90;82.20;;;;;;6308029;22;20381;-77
2023/02/03 06:27:35;;;;;;;44.70;22.17;;;6.90;82.20;;;;;;6308386;22;19999;-77
2023/02/03 06:30:01;;;;;;;34.22;20.27;;;6.80;82.30;;;;;;6308712;22;20149;-77
2023/02/03 06:32:26;;;;;;;33.60;19.83;;;6.90;82.80;;;;;;6308479;22;20005;-77
2023/02/03 06:34:52;;;;;;;29.83;19.25;;;6.90;82.90;;;;;;6308005;22;20474;-78
2023/02/03 06:37:18;;;;;;;30.02;19.17;;;6.90;82.70;;;;;;6309023;22;20052;-77
2023/02/03 06:39:43;;;;;;;33.10;20.73;;;7.00;82.80;;;;;;6309606;22;20465;-76
2023/02/03 06:42:09;;;;;;;28.70;18.83;;;7.00;82.70;;;;;;6328366;22;20072;-76
2023/02/03 06:44:35;;;;;;;31.90;19.08;;;7.00;82.10;;;;;;6339908;22;19995;-76
2023/02/03 06:47:03;;;;;;;29.88;17.85;;;7.00;82.70;;;;;;6339322;22;20070;-77
2023/02/03 06:49:29;;;;;;;32.35;18.23;;;6.90;83.50;;;;;;6339123;22;20377;-78
2023/02/03 06:51:55;;;;;;;30.15;17.80;;;6.90;82.70;;;;;;6338695;22;19998;-73
2023/02/03 06:54:21;;;;;;;30.20;19.77;;;6.90;82.40;;;;;;6338555;22;20022;-76
2023/02/03 06:56:47;;;;;;;30.83;18.27;;;7.00;82.60;;;;;;6339182;22;20022;-73
2023/02/03 06:59:13;;;;;;;30.40;17.50;;;7.10;82.80;;;;;;6338344;22;20003;-72
2023/02/03 07:01:39;;;;;;;37.65;17.70;;;7.20;83.00;;;;;;6338746;22;20026;-72
2023/02/03 07:04:05;;;;;;;27.83;17.40;;;7.30;82.30;;;;;;6338613;22;20375;-73
2023/02/03 07:06:33;;;;;;;28.65;17.13;;;7.40;82.20;;;;;;6338201;22;20053;-74
2023/02/03 07:09:04;;;;;;;28.45;16.45;;;7.50;81.80;;;;;;6338378;22;20013;-73
2023/02/03 07:11:30;;;;;;;25.42;16.13;;;7.60;81.90;;;;;;6338730;22;20369;-75
2023/02/03 07:13:56;;;;;;;25.67;15.27;;;7.80;82.10;;;;;;6338534;22;20278;-72
2023/02/03 07:16:22;;;;;;;27.10;15.40;;;7.90;81.70;;;;;;6338506;22;20005;-72
2023/02/03 07:18:47;;;;;;;28.45;14.88;;;8.00;80.90;;;;;;6338903;22;20011;-72
2023/02/03 07:21:14;;;;;;;31.58;15.73;;;8.00;81.00;;;;;;6338764;22;20429;-72
2023/02/03 07:23:40;;;;;;;27.67;15.45;;;8.10;81.20;;;;;;6339362;22;20079;-73
2023/02/03 07:26:07;;;;;;;22.67;14.40;;;8.20;80.50;;;;;;6341422;22;20007;-71
2023/02/03 07:28:34;;;;;;;26.75;13.68;;;8.20;81.20;;;;;;6346110;22;20010;-72
2023/02/03 07:31:03;;;;;;;27.40;14.63;;;8.40;80.60;;;;;;6360335;22;19998;-71
2023/02/03 07:33:29;;;;;;;27.45;14.32;;;8.40;80.10;;;;;;6350313;22;20049;-72
2023/02/03 07:35:57;;;;;;;26.00;13.93;;;8.50;80.20;;;;;;6338643;22;20082;-73
2023/02/03 07:38:25;;;;;;;25.63;12.90;;;8.60;79.90;;;;;;6338999;22;20017;-72
2023/02/03 07:40:51;;;;;;;22.85;12.82;;;8.60;79.50;;;;;;6338451;22;20331;-71
2023/02/03 07:43:17;;;;;;;22.73;12.95;;;8.80;79.70;;;;;;6338021;22;20009;-71
2023/02/03 07:45:43;;;;;;;30.75;14.55;;;8.90;79.40;;;;;;6338138;22;20085;-72
2023/02/03 07:48:09;;;;;;;26.92;13.32;;;9.00;79.20;;;;;;6338941;22;20422;-72
2023/02/03 07:50:35;;;;;;;36.17;13.63;;;9.00;79.20;;;;;;6337895;22;19994;-71
2023/02/03 07:53:01;;;;;;;36.03;13.52;;;9.20;78.80;;;;;;6338007;22;20007;-72
2023/02/03 07:55:27;;;;;;;26.15;13.35;;;9.20;78.70;;;;;;6337610;22;20002;-73
2023/02/03 07:57:54;;;;;;;24.98;12.95;;;9.30;78.40;;;;;;6337471;22;20056;-75
2023/02/03 08:00:20;;;;;;;27.77;12.77;;;9.30;77.30;;;;;;6337487;22;20006;-75
2023/02/03 08:02:46;;;;;;;30.25;12.15;;;9.30;77.20;;;;;;6337929;22;20006;-72
2023/02/03 08:05:12;;;;;;;23.13;12.32;;;9.20;77.70;;;;;;6337400;22;20011;-72
2023/02/03 08:07:38;;;;;;;24.85;11.93;;;9.20;77.20;;;;;;6337097;22;19995;-71
2023/02/03 08:10:05;;;;;;;22.80;13.13;;;9.10;77.50;;;;;;6337361;22;20289;-71
2023/02/03 08:12:30;;;;;;;24.67;12.63;;;9.00;77.50;;;;;;6337049;22;19995;-71
2023/02/03 08:14:56;;;;;;;22.25;11.68;;;8.90;77.40;;;;;;6336635;22;19999;-71
2023/02/03 08:17:22;;;;;;;22.45;12.75;;;8.90;77.60;;;;;;6336280;22;20002;-72
2023/02/03 08:19:47;;;;;;;22.83;12.23;;;8.80;77.30;;;;;;6337141;22;20002;-71
2023/02/03 08:22:15;;;;;;;23.90;12.68;;;8.80;77.30;;;;;;6337613;22;20015;-72
2023/02/03 08:24:45;;;;;;;24.95;12.80;;;8.80;77.50;;;;;;6337407;22;20007;-72
2023/02/03 08:27:13;;;;;;;22.42;11.88;;;8.70;77.40;;;;;;6337112;22;20021;-71
2023/02/03 08:29:38;;;;;;;22.98;12.32;;;8.70;77.70;;;;;;6337699;22;20304;-71
2023/02/03 08:32:04;;;;;;;21.42;12.10;;;8.70;77.50;;;;;;6337523;22;20067;-71
2023/02/03 08:34:32;;;;;;;19.75;11.63;;;8.70;77.50;;;;;;6337490;22;20417;-71
2023/02/03 08:36:58;;;;;;;18.15;12.00;;;8.70;77.70;;;;;;6337272;22;19999;-71
2023/02/03 08:39:24;;;;;;;19.23;12.27;;;8.70;77.60;;;;;;6337157;22;19995;-71
2023/02/03 08:41:49;;;;;;;21.90;13.38;;;8.70;77.50;;;;;;6337302;22;20025;-71
2023/02/03 08:44:17;;;;;;;20.65;13.00;;;8.70;77.20;;;;;;6337551;22;19994;-71
2023/02/03 08:46:43;;;;;;;21.33;12.02;;;8.70;77.50;;;;;;6336995;22;20011;-73
2023/02/03 08:49:10;;;;;;;26.23;11.57;;;8.70;77.70;;;;;;6337157;22;20489;-73
2023/02/03 08:51:35;;;;;;;21.15;12.35;;;8.70;77.40;;;;;;6337647;22;20109;-73
2023/02/03 08:54:01;;;;;;;20.38;12.88;;;8.80;77.80;;;;;;6337521;22;20437;-73
2023/02/03 08:56:27;;;;;;;24.15;12.40;;;8.90;77.30;;;;;;6337351;22;20400;-72
2023/02/03 08:58:53;;;;;;;29.02;13.02;;;9.00;77.30;;;;;;6337241;22;19999;-72
2023/02/03 09:01:19;;;;;;;20.63;11.07;;;9.10;76.90;;;;;;6309929;22;20039;-72
2023/02/03 09:03:45;;;;;;;19.55;11.38;;;9.20;76.80;;;;;;6336888;22;20048;-70
2023/02/03 09:06:12;;;;;;;18.95;11.68;;;9.20;76.40;;;;;;6337381;22;20445;-71
2023/02/03 09:08:38;;;;;;;19.85;11.93;;;9.30;76.40;;;;;;6337138;22;20003;-71
2023/02/03 09:11:08;;;;;;;19.88;10.95;;;9.40;76.00;;;;;;6337083;22;20003;-71
2023/02/03 09:13:34;;;;;;;23.83;12.63;;;9.50;75.90;;;;;;6337339;22;20051;-72
2023/02/03 09:16:00;;;;;;;23.33;11.68;;;9.60;75.80;;;;;;6337040;22;20074;-73
2023/02/03 09:18:26;;;;;;;28.40;12.85;;;9.80;75.00;;;;;;6337314;22;20002;-72
2023/02/03 09:20:51;;;;;;;28.98;11.82;;;9.90;74.40;;;;;;6337373;22;20329;-73
2023/02/03 09:23:17;;;;;;;21.92;11.80;;;10.00;73.50;;;;;;6337473;22;20070;-72
2023/02/03 09:25:43;;;;;;;16.48;10.95;;;10.00;73.40;;;;;;6337033;22;20014;-71
2023/02/03 09:28:08;;;;;;;18.50;10.50;;;10.10;72.90;;;;;;6337636;22;20036;-74
2023/02/03 09:30:34;;;;;;;18.67;10.23;;;10.10;73.00;;;;;;6337972;22;20443;-72
2023/02/03 09:33:00;;;;;;;16.75;8.25;;;10.10;73.10;;;;;;6340753;22;19994;-72
2023/02/03 09:35:26;;;;;;;18.83;9.98;;;10.20;72.80;;;;;;6339473;22;20003;-72
2023/02/03 09:37:52;;;;;;;14.57;8.65;;;10.30;72.50;;;;;;6339359;22;20332;-73
2023/02/03 09:40:30;;;;;;;15.82;10.40;;;10.40;72.20;;;;;;6339292;22;20081;-72
2023/02/03 09:43:27;;;;;;;15.27;9.88;;;10.50;72.20;;;;;;6338911;22;20015;-73
2023/02/03 09:45:53;;;;;;;24.65;10.02;;;10.70;72.70;;;;;;6300423;22;20015;-73
2023/02/03 09:48:26;;;;;;;15.88;9.05;;;10.70;71.70;;;;;;6339011;22;19999;-71
2023/02/03 09:50:52;;;;;;;19.13;10.90;;;10.90;71.50;;;;;;6338925;22;20027;-73
2023/02/03 09:53:33;;;;;;;22.38;9.70;;;11.00;71.30;;;;;;6338812;22;20249;-74
2023/02/03 09:55:59;;;;;;;20.17;10.75;;;11.20;71.80;;;;;;6339227;22;19998;-73
2023/02/03 09:58:27;;;;;;;14.00;9.77;;;11.40;71.10;;;;;;6339697;22;20007;-71
2023/02/03 10:00:58;;;;;;;19.73;11.00;;;11.50;70.70;;;;;;6339397;22;20014;-74
2023/02/03 10:03:44;;;;;;;18.25;10.18;;;11.60;70.50;;;;;;6339212;22;20007;-71
2023/02/03 10:06:19;;;;;;;22.38;11.40;;;11.70;70.70;;;;;;6338498;22;20088;-72
2023/02/03 10:09:03;;;;;;;16.50;10.60;;;11.80;70.60;;;;;;6310737;22;20003;-72
2023/02/03 10:11:56;;;;;;;18.38;10.25;;;11.90;69.70;;;;;;6338547;22;20010;-72
2023/02/03 10:14:27;;;;;;;33.00;10.88;;;12.00;69.40;;;;;;6338684;22;20092;-72
2023/02/03 10:17:02;;;;;;;20.15;10.55;;;12.10;69.10;;;;;;6338608;22;20030;-72
2023/02/03 10:20:25;;;;;;;23.42;10.32;;;12.10;69.00;;;;;;6338879;22;20010;-71
2023/02/03 10:22:56;;;;;;;24.98;11.18;;;12.20;68.40;;;;;;6273898;22;20050;-72
2023/02/03 10:25:37;;;;;;;16.38;9.82;;;12.20;68.30;;;;;;6327744;22;20019;-73
2023/02/03 10:28:12;;;;;;;19.90;9.18;;;12.30;68.50;;;;;;6338556;22;20301;-74
2023/02/03 10:30:44;;;;;;;19.15;9.15;;;12.40;68.30;;;;;;6338814;22;19999;-72
2023/02/03 10:33:18;;;;;;;18.90;9.50;;;12.50;67.60;;;;;;6338407;22;20007;-72
2023/02/03 10:35:50;;;;;;;23.38;10.93;;;12.60;67.70;;;;;;6338650;22;20003;-73
2023/02/03 10:38:57;;;;;;;18.45;10.68;;;12.70;67.60;;;;;;6338692;22;20030;-73
2023/02/03 10:41:23;;;;;;;23.50;10.95;;;12.90;67.70;;;;;;6337346;22;20064;-72
2023/02/03 10:43:51;;;;;;;21.65;10.10;;;12.90;66.90;;;;;;6337983;22;20021;-72
2023/02/03 10:46:26;;;;;;;19.83;10.43;;;13.00;67.10;;;;;;6338233;22;20413;-73
2023/02/03 10:48:52;;;;;;;18.67;10.40;;;13.00;67.00;;;;;;6338362;22;20308;-73
2023/02/03 10:51:24;;;;;;;17.58;10.63;;;13.10;66.50;;;;;;6310685;22;20112;-72
2023/02/03 10:53:52;;;;;;;17.63;10.23;;;13.10;66.10;;;;;;6338770;22;20101;-72
2023/02/03 10:56:21;;;;;;;19.35;11.18;;;13.10;65.90;;;;;;6338283;22;20007;-72
2023/02/03 10:58:55;;;;;;;21.75;11.13;;;13.10;65.70;;;;;;6338646;22;20006;-71
2023/02/03 11:01:23;;;;;;;;;;;13.10;65.80;;;;;;6311008;22;20383;-72
2023/02/03 11:03:59;;;;;;;17.95;10.35;;;13.10;64.40;;;;;;6338355;22;20239;-73
2023/02/03 11:06:26;;;;;;;19.23;10.35;;;13.20;66.00;;;;;;6337898;22;20372;-74
2023/02/03 11:08:53;;;;;;;25.67;10.63;;;13.20;65.50;;;;;;6338868;22;20007;-73
2023/02/03 11:11:23;;;;;;;21.05;9.82;;;13.30;65.20;;;;;;6338450;22;20007;-73
2023/02/03 11:14:15;;;;;;;16.33;9.13;;;13.30;65.40;;;;;;6338380;22;20435;-72
2023/02/03 11:16:41;;;;;;;19.67;9.20;;;13.30;65.10;;;;;;6327476;22;20463;-71
2023/02/03 11:19:16;;;;;;;17.83;9.48;;;13.30;65.10;;;;;;6338152;22;20003;-72
2023/02/03 11:21:48;;;;;;;15.30;9.10;;;13.30;65.70;;;;;;6338020;22;20002;-73
2023/02/03 11:24:41;;;;;;;19.13;9.43;;;13.30;66.00;;;;;;6338050;22;20006;-71
2023/02/03 11:27:15;;;;;;;22.08;9.10;;;13.40;65.50;;;;;;6334300;22;20034;-72
2023/02/03 11:29:46;;;;;;;13.73;8.70;;;13.50;65.70;;;;;;6337272;22;20015;-74
2023/02/03 11:32:18;;;;;;;13.45;8.50;;;13.60;64.90;;;;;;6338696;22;20010;-74
2023/02/03 11:34:53;;;;;;;16.33;9.63;;;13.60;65.10;;;;;;6338441;22;20412;-73
2023/02/03 11:37:33;;;;;;;16.75;9.88;;;13.70;64.90;;;;;;6338354;22;20332;-74
2023/02/03 11:40:09;;;;;;;19.45;10.35;;;13.70;64.30;;;;;;6338732;22;19998;-74
2023/02/03 11:42:38;;;;;;;17.92;10.30;;;13.80;64.60;;;;;;6310766;22;20003;-74
2023/02/03 11:45:38;;;;;;;21.35;9.82;;;13.80;63.90;;;;;;6338517;22;20015;-73
2023/02/03 11:48:09;;;;;;;25.23;10.13;;;13.80;64.80;;;;;;6338599;22;20341;-74
2023/02/03 11:51:10;;;;;;;20.05;9.77;;;13.90;64.00;;;;;;6338157;22;20079;-74
2023/02/03 11:54:09;;;;;;;17.92;9.80;;;14.00;64.60;;;;;;6337979;22;20132;-74
2023/02/03 11:57:00;;;;;;;15.90;9.82;;;14.10;64.60;;;;;;6338202;22;20077;-73
2023/02/03 11:59:46;;;;;;;19.23;11.35;;;14.20;63.80;;;;;;6338101;22;20486;-74
2023/02/03 12:02:33;;;;;;;19.02;11.07;;;14.30;63.70;;;;;;6338536;22;20030;-74
2023/02/03 12:05:19;;;;;;;22.38;10.77;;;14.40;63.10;;;;;;6338335;22;19995;-74
2023/02/03 12:07:48;;;;;;;24.60;11.02;;;14.40;63.20;;;;;;6338945;22;20059;-74
2023/02/03 12:10:32;;;;;;;20.90;11.52;;;14.40;62.80;;;;;;6338397;22;19995;-74
2023/02/03 12:13:03;;;;;;;;;;;14.60;62.20;;;;;;6339058;22;20066;-75
2023/02/03 12:15:50;;;;;;;19.38;11.25;;;14.60;62.70;;;;;;6338397;22;19898;-75
2023/02/03 12:18:38;;;;;;;21.50;10.13;;;14.70;62.60;;;;;;6338325;22;20048;-73
2023/02/03 12:21:12;;;;;;;20.98;10.38;;;14.80;61.80;;;;;;6338553;22;20114;-74
2023/02/03 12:23:51;;;;;;;16.05;9.50;;;14.80;61.90;;;;;;6338038;22;20002;-73
2023/02/03 12:26:33;;;;;;;20.55;9.88;;;14.90;61.40;;;;;;6338201;22;20034;-74
2023/02/03 12:29:08;;;;;;;13.38;7.90;;;14.90;61.40;;;;;;6337992;22;20387;-73
2023/02/03 12:31:43;;;;;;;15.55;8.50;;;14.90;61.30;;;;;;6338158;22;20440;-74
2023/02/03 12:34:29;;;;;;;16.77;8.98;;;14.90;61.50;;;;;;6338026;22;20184;-74
2023/02/03 12:37:24;;;;;;;17.40;8.90;;;15.00;61.10;;;;;;6310443;22;20061;-75
2023/02/03 12:39:53;;;;;;;15.77;8.77;;;15.10;61.10;;;;;;6338550;22;20002;-74
2023/02/03 12:42:46;;;;;;;18.27;9.57;;;15.20;60.90;;;;;;6338409;22;20029;-74
2023/02/03 12:45:23;;;;;;;17.25;9.10;;;15.20;60.40;;;;;;6338433;22;20003;-74
2023/02/03 12:48:04;;;;;;;18.20;8.82;;;15.20;60.50;;;;;;6337850;22;20448;-74
2023/02/03 12:50:41;;;;;;;19.88;9.10;;;15.10;60.20;;;;;;6337977;22;20428;-74
2023/02/03 12:53:29;;;;;;;16.60;9.07;;;15.20;60.40;;;;;;6337922;22;20022;-74
2023/02/03 12:56:22;;;;;;;16.92;8.68;;;15.30;60.40;;;;;;6337620;22;20332;-75
2023/02/03 12:59:05;;;;;;;20.08;8.15;;;15.40;60.10;;;;;;6309480;22;20009;-74
2023/02/03 13:01:57;;;;;;;25.25;9.25;;;15.50;59.90;;;;;;6337990;22;20333;-75
2023/02/03 13:04:32;;;;;;;14.20;7.50;;;15.60;59.70;;;;;;6325538;22;20011;-74
2023/02/03 13:07:15;;;;;;;15.13;8.02;;;15.70;59.50;;;;;;6339651;22;20019;-74
2023/02/03 13:09:53;;;;;;;22.48;8.38;;;15.70;58.90;;;;;;6340004;22;19995;-75
2023/02/03 13:12:26;;;;;;;16.92;8.05;;;15.70;58.70;;;;;;6339973;22;20075;-74
2023/02/03 13:15:29;;;;;;;17.67;8.25;;;15.60;58.70;;;;;;6339459;22;20073;-75
2023/02/03 13:18:04;;;;;;;15.35;8.13;;;15.70;58.50;;;;;;6340081;22;20006;-74
2023/02/03 13:20:34;;;;;;;13.57;7.30;;;15.70;58.60;;;;;;6339579;22;20045;-74
2023/02/03 13:23:03;;;;;;;16.77;7.63;;;15.80;58.70;;;;;;6339759;22;19998;-74
2023/02/03 13:25:46;;;;;;;16.00;7.82;;;15.80;58.70;;;;;;6339676;22;20009;-74
2023/02/03 13:28:33;;;;;;;15.27;8.30;;;15.90;58.70;;;;;;6312272;22;20063;-73
2023/02/03 13:31:17;;;;;;;14.35;7.95;;;16.00;58.50;;;;;;6340119;22;20444;-75
2023/02/03 13:33:48;;;;;;;;;;;16.00;58.30;;;;;;6340176;22;20428;-75
2023/02/03 13:36:19;;;;;;;14.57;7.60;;;16.00;57.70;;;;;;6340227;22;19974;-76
2023/02/03 13:38:51;;;;;;;18.60;7.90;;;16.10;58.50;;;;;;6340362;22;20011;-75
2023/02/03 13:41:52;;;;;;;17.48;7.80;;;16.10;58.30;;;;;;6340099;22;19995;-73
2023/02/03 13:44:22;;;;;;;14.75;7.25;;;16.20;58.30;;;;;;6340202;22;19999;-72
2023/02/03 13:46:49;;;;;;;17.90;8.30;;;16.20;57.90;;;;;;6339760;22;20403;-75
2023/02/03 13:49:27;;;;;;;15.80;7.43;;;16.20;57.90;;;;;;6339715;22;20504;-74
2023/02/03 13:51:54;;;;;;;17.25;7.97;;;16.30;58.00;;;;;;6340107;22;20025;-75
2023/02/03 13:54:30;;;;;;;19.92;9.10;;;16.30;58.20;;;;;;6339604;22;19998;-75
2023/02/03 13:57:02;;;;;;;18.23;8.95;;;16.30;58.40;;;;;;6339689;22;20036;-74
2023/02/03 13:59:36;;;;;;;20.08;8.43;;;16.30;58.50;;;;;;6339540;22;20003;-76
2023/02/03 14:02:20;;;;;;;21.00;8.90;;;16.30;58.80;;;;;;6340030;22;20384;-75
2023/02/03 14:04:46;;;;;;;18.60;9.45;;;16.30;58.70;;;;;;6339711;22;20045;-74
2023/02/03 14:07:37;;;;;;;21.42;9.85;;;16.40;59.00;;;;;;6339569;22;20451;-75
2023/02/03 14:10:11;;;;;;;15.98;8.30;;;16.40;59.00;;;;;;6339596;22;20011;-74
2023/02/03 14:12:49;;;;;;;16.45;8.80;;;16.40;59.00;;;;;;6340203;22;20078;-75
2023/02/03 14:15:24;;;;;;;16.77;8.25;;;16.40;59.40;;;;;;6339914;22;20306;-75
2023/02/03 14:17:50;;;;;;;16.92;8.07;;;16.40;59.40;;;;;;6342738;22;20021;-74
2023/02/03 14:20:27;;;;;;;19.27;8.43;;;16.40;59.60;;;;;;6342744;22;20003;-74
2023/02/03 14:23:34;;;;;;;20.40;8.35;;;16.40;59.80;;;;;;6343125;22;20009;-75
2023/02/03 14:26:01;;;;;;;14.27;6.95;;;16.40;60.80;;;;;;6342403;22;20379;-73
2023/02/03 14:28:41;;;;;;;18.20;7.00;;;16.40;60.60;;;;;;6356181;22;19995;-74
2023/02/03 14:31:11;;;;;;;17.20;6.53;;;16.30;61.10;;;;;;6330300;22;20003;-74
2023/02/03 14:33:49;;;;;;;20.48;6.78;;;16.30;61.50;;;;;;6331256;22;20019;-73
2023/02/03 14:36:33;;;;;;;15.77;6.28;;;16.30;61.80;;;;;;6328161;22;20026;-73
2023/02/03 14:39:03;;;;;;;14.00;6.40;;;16.30;62.20;;;;;;6308360;22;20333;-75
2023/02/03 14:41:52;;;;;;;12.55;4.97;;;16.20;62.30;;;;;;6308741;22;19999;-74
2023/02/03 14:44:41;;;;;;;15.25;6.07;;;16.20;62.50;;;;;;6307779;22;20019;-75
2023/02/03 14:47:13;;;;;;;13.02;5.53;;;16.20;62.90;;;;;;6307723;22;20039;-74
2023/02/03 14:49:47;;;;;;;16.95;6.45;;;16.20;62.80;;;;;;6307714;22;20000;-74
2023/02/03 14:52:32;;;;;;;13.25;5.50;;;16.10;63.30;;;;;;6307478;22;19999;-74
2023/02/03 14:55:17;;;;;;;14.68;5.53;;;16.00;63.60;;;;;;6308188;22;19999;-74
2023/02/03 14:57:51;;;;;;;12.15;5.30;;;16.00;64.10;;;;;;6307457;22;20065;-74
2023/02/03 15:00:20;;;;;;;15.63;5.97;;;15.90;64.30;;;;;;6307639;22;20306;-74
2023/02/03 15:03:08;;;;;;;11.90;5.75;;;15.80;64.20;;;;;;6307804;22;20440;-75
2023/02/03 15:05:46;;;;;;;16.15;5.57;;;15.70;64.90;;;;;;6307571;22;20053;-74
2023/02/03 15:08:34;;;;;;;12.93;5.40;;;15.70;64.60;;;;;;6307468;22;20011;-74
2023/02/03 15:11:13;;;;;;;13.20;5.25;;;15.60;64.70;;;;;;6307701;22;20003;-74
2023/02/03 15:13:38;;;;;;;17.13;5.15;;;15.50;64.90;;;;;;6307585;22;20019;-73
2023/02/03 15:16:11;;;;;;;12.30;4.93;;;15.50;64.90;;;;;;6308200;22;20006;-74
2023/02/03 15:18:39;;;;;;;10.07;4.25;;;15.40;64.80;;;;;;6307932;22;20003;-74
2023/02/03 15:21:05;;;;;;;10.80;4.13;;;15.40;65.60;;;;;;6308140;22;20064;-74
2023/02/03 15:23:41;;;;;;;11.32;4.53;;;15.40;65.10;;;;;;6307908;22;20347;-75
2023/02/03 15:26:12;;;;;;;8.15;3.70;;;15.30;65.10;;;;;;6307516;22;20011;-75
2023/02/03 15:28:38;;;;;;;12.25;3.88;;;15.30;65.30;;;;;;6309979;22;20004;-76
2023/02/03 15:31:06;;;;;;;7.88;3.00;;;15.20;65.30;;;;;;6339392;22;20317;-75
2023/02/03 15:33:35;;;;;;;12.05;3.65;;;15.10;65.90;;;;;;6339678;22;20074;-74
2023/02/03 15:36:11;;;;;;;12.43;4.22;;;15.00;65.50;;;;;;6311827;22;20003;-73
2023/02/03 15:38:51;;;;;;;12.85;3.63;;;15.00;65.80;;;;;;6339035;22;19999;-74
2023/02/03 15:41:22;;;;;;;8.80;3.65;;;14.90;66.30;;;;;;6340026;22;20070;-75
2023/02/03 15:43:52;;;;;;;13.13;3.92;;;14.90;66.30;;;;;;6339568;22;20052;-75
2023/02/03 15:46:56;;;;;;;12.85;3.65;;;14.80;66.60;;;;;;6311266;22;20018;-75